PWSweather.com
Personal Weather Stations
Station Observations
PALMY
Palmerston NorthNZ 4410

Palmerston NorthNZ 4410

Lat: -40.349104, Lon: 175.615094

Elevation: 75.4

Station Type: WeatherDuino Pro2

http://palmyweather.co.nz

Latest ConditionsUpdated 10:00:00 AM GMT+12:12 Saturday, Oct 19, 2019
Currently Today's Max Today's Min Today's Average
Temperature 62.2°F16.8°C 63.0°F17.2°C 54.1°F12.3°C 56.9°F13.8°C
Dew Point 53.8°F12.1°C 56.0°F13.3°C 50.6°F10.3°C 52.3°F11.3°C
Winds 11.6 mph WNW18.7 kmh WNW 12.5 mph -20.1 kmh - - 3.0 mph 4.8 kmh
Wind Gusts 28.2 mph45.4 kmh 30.5 mph49.1 kmh - -
Humidity 74% 93% 74% 85%
Pressure 29.70 in1005.8 mb 29.80 in1009.1 mb 29.67 in1004.7 mb -
Precipitation - 0.20 in5.1 mm - -
Hour Temp Dew Point Humidity Winds Wind Gusts Pressure Precip Precip Rate Daily Precip Total
10:00 AM 62.2°F16.8°C 53.8°F12.1°C 74% 11.6 mph WNW18.7 kmh WNW 28.2 mph45.4 kmh 29.70 in1005.8 mb 0.00 in0.0 mm 0.00 in0.0 mm 0.20 in5.1 mm
09:55 AM 62.2°F16.8°C 54.5°F12.5°C 76% 11.6 mph WNW18.7 kmh WNW 28.7 mph46.2 kmh 29.71 in1006.1 mb 0.00 in0.0 mm 0.00 in0.0 mm 0.20 in5.1 mm
09:50 AM 63.0°F17.2°C 55.7°F13.2°C 77% 10.8 mph WNW17.4 kmh WNW 30.5 mph49.1 kmh 29.70 in1005.8 mb 0.01 in0.3 mm 0.00 in0.0 mm 0.20 in5.1 mm
09:45 AM 62.4°F16.9°C 55.4°F13.0°C 78% 9.9 mph WNW15.9 kmh WNW 30.5 mph49.1 kmh 29.70 in1005.8 mb 0.01 in0.3 mm 0.00 in0.0 mm 0.20 in5.1 mm
09:40 AM 61.5°F16.4°C 55.6°F13.1°C 81% 11.6 mph WNW18.7 kmh WNW 25.1 mph40.4 kmh 29.70 in1005.8 mb 0.01 in0.3 mm 0.00 in0.0 mm 0.20 in5.1 mm
09:35 AM 61.3°F16.3°C 55.4°F13.0°C 81% 12.5 mph WNW20.1 kmh WNW 28.7 mph46.2 kmh 29.70 in1005.8 mb 0.01 in0.3 mm 0.00 in0.0 mm 0.20 in5.1 mm
09:30 AM 60.6°F15.9°C 55.1°F12.8°C 82% 12.1 mph WNW19.5 kmh WNW 28.7 mph46.2 kmh 29.70 in1005.8 mb 0.01 in0.3 mm 0.00 in0.0 mm 0.20 in5.1 mm
09:25 AM 61.2°F16.2°C 56.0°F13.3°C 83% 12.5 mph WNW20.1 kmh WNW 29.6 mph47.6 kmh 29.70 in1005.8 mb 0.01 in0.3 mm 0.00 in0.0 mm 0.20 in5.1 mm
09:20 AM 59.9°F15.5°C 55.4°F13.0°C 85% 12.1 mph WNW19.5 kmh WNW 29.6 mph47.6 kmh 29.70 in1005.8 mb 0.01 in0.3 mm 0.00 in0.0 mm 0.20 in5.1 mm
09:15 AM 60.1°F15.6°C 55.6°F13.1°C 85% 10.3 mph W16.6 kmh W 26.9 mph43.3 kmh 29.70 in1005.8 mb 0.01 in0.3 mm 0.00 in0.0 mm 0.20 in5.1 mm
09:10 AM 59.5°F15.3°C 55.6°F13.1°C 87% 10.8 mph WNW17.4 kmh WNW 25.5 mph41.0 kmh 29.70 in1005.8 mb 0.01 in0.3 mm 0.00 in0.0 mm 0.20 in5.1 mm
09:05 AM 57.7°F14.3°C 54.5°F12.5°C 89% 10.8 mph WNW17.4 kmh WNW 25.5 mph41.0 kmh 29.70 in1005.8 mb 0.01 in0.3 mm 0.00 in0.0 mm 0.20 in5.1 mm
09:00 AM 57.4°F14.1°C 54.5°F12.5°C 90% 9.0 mph WNW14.5 kmh WNW 22.4 mph36.0 kmh 29.70 in1005.8 mb 0.01 in0.3 mm 0.00 in0.0 mm 0.20 in5.1 mm
08:55 AM 57.0°F13.9°C 54.4°F12.4°C 91% 8.1 mph WNW13.0 kmh WNW 22.8 mph36.7 kmh 29.70 in1005.8 mb 0.01 in0.3 mm 0.12 in3.0 mm 0.20 in5.1 mm
08:50 AM 58.1°F14.5°C 54.6°F12.6°C 88% 8.1 mph WNW13.0 kmh WNW 22.8 mph36.7 kmh 29.70 in1005.8 mb 0.00 in0.0 mm 0.00 in0.0 mm 0.19 in4.8 mm
08:45 AM 59.0°F15.0°C 54.8°F12.7°C 86% 6.7 mph WNW10.8 kmh WNW 19.7 mph31.7 kmh 29.70 in1005.8 mb 0.00 in0.0 mm 0.00 in0.0 mm 0.19 in4.8 mm
08:40 AM 59.5°F15.3°C 55.0°F12.8°C 85% 4.5 mph WNW7.2 kmh WNW 14.3 mph23.0 kmh 29.69 in1005.4 mb 0.01 in0.3 mm 0.00 in0.0 mm 0.19 in4.8 mm
08:35 AM 60.3°F15.7°C 55.8°F13.2°C 85% 3.6 mph WNW5.8 kmh WNW 9.0 mph14.5 kmh 29.69 in1005.4 mb 0.01 in0.3 mm 0.00 in0.0 mm 0.19 in4.8 mm
08:30 AM 59.4°F15.2°C 55.5°F13.1°C 87% 3.6 mph WNW5.8 kmh WNW 9.0 mph14.5 kmh 29.69 in1005.4 mb 0.02 in0.5 mm 0.00 in0.0 mm 0.19 in4.8 mm
08:25 AM 58.6°F14.8°C 55.1°F12.8°C 88% 3.1 mph W5.0 kmh W 9.0 mph14.5 kmh 29.68 in1005.1 mb 0.05 in1.3 mm 0.00 in0.0 mm 0.19 in4.8 mm
08:20 AM 58.3°F14.6°C 55.1°F12.8°C 89% 3.1 mph W5.0 kmh W 6.7 mph10.8 kmh 29.69 in1005.4 mb 0.06 in1.5 mm 0.00 in0.0 mm 0.19 in4.8 mm
08:15 AM 57.9°F14.4°C 55.0°F12.8°C 90% 3.6 mph W5.8 kmh W 9.4 mph15.1 kmh 29.69 in1005.4 mb 0.07 in1.8 mm 0.00 in0.0 mm 0.19 in4.8 mm
08:10 AM 56.8°F13.8°C 54.2°F12.3°C 91% 3.6 mph W5.8 kmh W 9.4 mph15.1 kmh 29.70 in1005.8 mb 0.08 in2.0 mm 0.00 in0.0 mm 0.19 in4.8 mm
08:05 AM 56.3°F13.5°C 53.7°F12.1°C 91% 3.1 mph W5.0 kmh W 12.1 mph19.5 kmh 29.69 in1005.4 mb 0.09 in2.3 mm 0.00 in0.0 mm 0.19 in4.8 mm
08:00 AM 55.6°F13.1°C 53.3°F11.8°C 92% 3.1 mph WNW5.0 kmh WNW 12.1 mph19.5 kmh 29.69 in1005.4 mb 0.09 in2.3 mm 0.00 in0.0 mm 0.19 in4.8 mm
07:55 AM 55.4°F13.0°C 53.4°F11.9°C 93% 2.2 mph WNW3.5 kmh WNW 5.4 mph8.7 kmh 29.69 in1005.4 mb 0.11 in2.8 mm 0.00 in0.0 mm 0.19 in4.8 mm
07:50 AM 54.5°F12.5°C 52.5°F11.4°C 93% 2.2 mph WNW3.5 kmh WNW 5.8 mph9.3 kmh 29.69 in1005.4 mb 0.12 in3.0 mm 0.00 in0.0 mm 0.19 in4.8 mm
07:45 AM 54.3°F12.4°C 52.3°F11.3°C 93% 2.2 mph W3.5 kmh W 5.8 mph9.3 kmh 29.69 in1005.4 mb 0.12 in3.0 mm 0.12 in3.0 mm 0.19 in4.8 mm
07:40 AM 54.1°F12.3°C 52.1°F11.2°C 93% 2.2 mph WSW3.5 kmh WSW 6.3 mph10.1 kmh 29.69 in1005.4 mb 0.11 in2.8 mm 0.00 in0.0 mm 0.18 in4.6 mm
07:35 AM 54.1°F12.3°C 52.1°F11.2°C 93% 2.7 mph W4.3 kmh W 6.3 mph10.1 kmh 29.69 in1005.4 mb 0.11 in2.8 mm 0.12 in3.0 mm 0.18 in4.6 mm
07:30 AM 54.1°F12.3°C 52.1°F11.2°C 93% 2.7 mph WSW4.3 kmh WSW 6.7 mph10.8 kmh 29.69 in1005.4 mb 0.10 in2.5 mm 0.24 in6.1 mm 0.17 in4.3 mm
07:25 AM 54.3°F12.4°C 52.0°F11.1°C 92% 2.7 mph WSW4.3 kmh WSW 6.7 mph10.8 kmh 29.68 in1005.1 mb 0.08 in2.0 mm 0.12 in3.0 mm 0.14 in3.6 mm
07:20 AM 54.7°F12.6°C 52.1°F11.2°C 91% 2.2 mph WSW3.5 kmh WSW 6.3 mph10.1 kmh 29.68 in1005.1 mb 0.07 in1.8 mm 0.12 in3.0 mm 0.13 in3.3 mm
07:15 AM 54.9°F12.7°C 52.0°F11.1°C 90% 0.9 mph W1.4 kmh W 4.9 mph7.9 kmh 29.67 in1004.7 mb 0.06 in1.5 mm 0.00 in0.0 mm 0.12 in3.0 mm
07:10 AM 55.0°F12.8°C 52.4°F11.3°C 91% 0.9 mph WSW1.4 kmh WSW 4.9 mph7.9 kmh 29.68 in1005.1 mb 0.06 in1.5 mm 0.00 in0.0 mm 0.11 in2.8 mm
07:05 AM 54.7°F12.6°C 51.8°F11.0°C 90% 1.3 mph WSW2.1 kmh WSW 4.5 mph7.2 kmh 29.68 in1005.1 mb 0.06 in1.5 mm 0.00 in0.0 mm 0.10 in2.5 mm
07:00 AM 54.9°F12.7°C 51.7°F10.9°C 89% 1.8 mph WSW2.9 kmh WSW 4.5 mph7.2 kmh 29.68 in1005.1 mb 0.08 in2.0 mm 0.01 in0.3 mm 0.09 in2.3 mm
06:55 AM 55.2°F12.9°C 52.0°F11.1°C 89% 1.8 mph WNW2.9 kmh WNW 4.5 mph7.2 kmh 29.68 in1005.1 mb 0.07 in1.8 mm 0.00 in0.0 mm 0.08 in2.0 mm
06:50 AM 55.6°F13.1°C 52.1°F11.2°C 88% 1.8 mph N2.9 kmh N 5.8 mph9.3 kmh 29.68 in1005.1 mb 0.07 in1.8 mm 0.00 in0.0 mm 0.07 in1.8 mm
06:45 AM 55.6°F13.1°C 52.1°F11.2°C 88% 2.7 mph NNE4.3 kmh NNE 6.7 mph10.8 kmh 29.67 in1004.7 mb 0.07 in1.8 mm 0.00 in0.0 mm 0.07 in1.8 mm
06:40 AM 55.6°F13.1°C 52.1°F11.2°C 88% 3.6 mph NNE5.8 kmh NNE 6.7 mph10.8 kmh 29.67 in1004.7 mb 0.07 in1.8 mm 0.00 in0.0 mm 0.07 in1.8 mm
06:35 AM 55.4°F13.0°C 52.2°F11.2°C 89% 3.6 mph NNE5.8 kmh NNE 9.9 mph15.9 kmh 29.67 in1004.7 mb 0.07 in1.8 mm 0.12 in3.0 mm 0.07 in1.8 mm
06:30 AM 55.2°F12.9°C 52.0°F11.1°C 89% 3.6 mph NE5.8 kmh NE 9.9 mph15.9 kmh 29.67 in1004.7 mb 0.06 in1.5 mm 0.00 in0.0 mm 0.06 in1.5 mm
06:25 AM 54.9°F12.7°C 52.6°F11.4°C 92% 2.7 mph NE4.3 kmh NE 4.9 mph7.9 kmh 29.68 in1005.1 mb 0.06 in1.5 mm 0.00 in0.0 mm 0.06 in1.5 mm
06:20 AM 55.0°F12.8°C 52.7°F11.5°C 92% 1.8 mph NE2.9 kmh NE 4.5 mph7.2 kmh 29.68 in1005.1 mb 0.06 in1.5 mm 0.00 in0.0 mm 0.06 in1.5 mm
06:15 AM 55.0°F12.8°C 52.4°F11.3°C 91% 1.3 mph E2.1 kmh E 4.5 mph7.2 kmh 29.68 in1005.1 mb 0.06 in1.5 mm 0.00 in0.0 mm 0.06 in1.5 mm
06:10 AM 55.0°F12.8°C 52.1°F11.2°C 90% 1.3 mph S2.1 kmh S 3.6 mph5.8 kmh 29.68 in1005.1 mb 0.06 in1.5 mm 0.12 in3.0 mm 0.06 in1.5 mm
06:05 AM 55.2°F12.9°C 52.3°F11.3°C 90% 1.3 mph S2.1 kmh S 3.6 mph5.8 kmh 29.68 in1005.1 mb 0.05 in1.3 mm 0.36 in9.1 mm 0.05 in1.3 mm
06:00 AM 55.4°F13.0°C 52.2°F11.2°C 89% 0.4 mph SE0.6 kmh SE 1.3 mph2.1 kmh 29.68 in1005.1 mb 0.02 in0.5 mm 0.02 in0.5 mm 0.02 in0.5 mm
05:55 AM 55.4°F13.0°C 51.9°F11.1°C 88% 0.4 mph E0.6 kmh E 1.3 mph2.1 kmh 29.68 in1005.1 mb 0.00 in0.0 mm 0.00 in0.0 mm 0.00 in0.0 mm
05:50 AM 55.6°F13.1°C 52.1°F11.2°C 88% 0.4 mph ENE0.6 kmh ENE 1.3 mph2.1 kmh 29.68 in1005.1 mb 0.00 in0.0 mm 0.00 in0.0 mm 0.00 in0.0 mm
05:45 AM 55.8°F13.2°C 52.0°F11.1°C 87% 0.9 mph ENE1.4 kmh ENE 1.3 mph2.1 kmh 29.68 in1005.1 mb 0.00 in0.0 mm 0.00 in0.0 mm 0.00 in0.0 mm
05:40 AM 55.8°F13.2°C 52.0°F11.1°C 87% 0.9 mph ENE1.4 kmh ENE 1.8 mph2.9 kmh 29.68 in1005.1 mb 0.00 in0.0 mm 0.00 in0.0 mm 0.00 in0.0 mm
05:35 AM 55.8°F13.2°C 52.0°F11.1°C 87% 0.9 mph NE1.4 kmh NE 3.6 mph5.8 kmh 29.68 in1005.1 mb 0.00 in0.0 mm 0.00 in0.0 mm 0.00 in0.0 mm
05:30 AM 55.9°F13.3°C 51.8°F11.0°C 86% 1.8 mph NE2.9 kmh NE 3.6 mph5.8 kmh 29.68 in1005.1 mb 0.00 in0.0 mm 0.00 in0.0 mm 0.00 in0.0 mm
05:25 AM 55.9°F13.3°C 51.8°F11.0°C 86% 2.2 mph NE3.5 kmh NE 4.9 mph7.9 kmh 29.67 in1004.7 mb 0.00 in0.0 mm 0.00 in0.0 mm 0.00 in0.0 mm
05:20 AM 55.8°F13.2°C 51.7°F10.9°C 86% 1.8 mph NE2.9 kmh NE 4.9 mph7.9 kmh 29.67 in1004.7 mb 0.00 in0.0 mm 0.00 in0.0 mm 0.00 in0.0 mm
05:15 AM 55.8°F13.2°C 52.0°F11.1°C 87% 1.3 mph NE2.1 kmh NE 4.0 mph6.4 kmh 29.68 in1005.1 mb 0.00 in0.0 mm 0.00 in0.0 mm 0.00 in0.0 mm
05:10 AM 55.9°F13.3°C 51.8°F11.0°C 86% 0.4 mph NE0.6 kmh NE 2.2 mph3.5 kmh 29.68 in1005.1 mb 0.00 in0.0 mm 0.00 in0.0 mm 0.00 in0.0 mm
05:05 AM 55.9°F13.3°C 51.8°F11.0°C 86% 0.4 mph N0.6 kmh N 1.3 mph2.1 kmh 29.69 in1005.4 mb 0.00 in0.0 mm 0.00 in0.0 mm 0.00 in0.0 mm
05:00 AM 55.9°F13.3°C 51.5°F10.8°C 85% 0.9 mph N1.4 kmh N 1.3 mph2.1 kmh 29.70 in1005.8 mb 0.00 in0.0 mm 0.00 in0.0 mm 0.00 in0.0 mm
04:55 AM 56.1°F13.4°C 51.3°F10.7°C 84% 0.9 mph N1.4 kmh N 1.3 mph2.1 kmh 29.70 in1005.8 mb 0.00 in0.0 mm 0.00 in0.0 mm 0.00 in0.0 mm
04:50 AM 56.1°F13.4°C 51.3°F10.7°C 84% 0.9 mph NW1.4 kmh NW 2.2 mph3.5 kmh 29.70 in1005.8 mb 0.00 in0.0 mm 0.00 in0.0 mm 0.00 in0.0 mm
04:45 AM 56.1°F13.4°C 51.3°F10.7°C 84% 1.3 mph NW2.1 kmh NW 4.5 mph7.2 kmh 29.70 in1005.8 mb 0.00 in0.0 mm 0.00 in0.0 mm 0.00 in0.0 mm
04:40 AM 56.1°F13.4°C 51.3°F10.7°C 84% 1.8 mph NW2.9 kmh NW 4.5 mph7.2 kmh 29.70 in1005.8 mb 0.00 in0.0 mm 0.00 in0.0 mm 0.00 in0.0 mm
04:35 AM 56.3°F13.5°C 51.5°F10.8°C 84% 1.8 mph NW2.9 kmh NW 4.0 mph6.4 kmh 29.70 in1005.8 mb 0.00 in0.0 mm 0.00 in0.0 mm 0.00 in0.0 mm
04:30 AM 56.3°F13.5°C 51.2°F10.7°C 83% 2.2 mph NW3.5 kmh NW 6.3 mph10.1 kmh 29.70 in1005.8 mb 0.00 in0.0 mm 0.00 in0.0 mm 0.00 in0.0 mm
04:25 AM 56.7°F13.7°C 51.6°F10.9°C 83% 2.7 mph NW4.3 kmh NW 6.3 mph10.1 kmh 29.70 in1005.8 mb 0.00 in0.0 mm 0.00 in0.0 mm 0.00 in0.0 mm
04:20 AM 56.7°F13.7°C 51.3°F10.7°C 82% 3.1 mph NW5.0 kmh NW 9.0 mph14.5 kmh 29.70 in1005.8 mb 0.00 in0.0 mm 0.00 in0.0 mm 0.00 in0.0 mm
04:15 AM 56.8°F13.8°C 51.0°F10.6°C 81% 4.0 mph NW6.4 kmh NW 9.0 mph14.5 kmh 29.70 in1005.8 mb 0.00 in0.0 mm 0.00 in0.0 mm 0.00 in0.0 mm
04:10 AM 57.0°F13.9°C 51.2°F10.7°C 81% 4.5 mph NW7.2 kmh NW 11.2 mph18.0 kmh 29.70 in1005.8 mb 0.00 in0.0 mm 0.00 in0.0 mm 0.00 in0.0 mm
04:05 AM 57.4°F14.1°C 50.9°F10.5°C 79% 5.4 mph NW8.7 kmh NW 11.6 mph18.7 kmh 29.70 in1005.8 mb 0.00 in0.0 mm 0.00 in0.0 mm 0.00 in0.0 mm
04:00 AM 57.4°F14.1°C 50.9°F10.5°C 79% 5.4 mph NW8.7 kmh NW 14.8 mph23.8 kmh 29.71 in1006.1 mb 0.00 in0.0 mm 0.00 in0.0 mm 0.00 in0.0 mm
03:55 AM 57.2°F14.0°C 51.1°F10.6°C 80% 4.9 mph NW7.9 kmh NW 14.8 mph23.8 kmh 29.71 in1006.1 mb 0.00 in0.0 mm 0.00 in0.0 mm 0.00 in0.0 mm
03:50 AM 57.0°F13.9°C 51.2°F10.7°C 81% 3.6 mph NW5.8 kmh NW 10.3 mph16.6 kmh 29.71 in1006.1 mb 0.00 in0.0 mm 0.00 in0.0 mm 0.00 in0.0 mm
03:45 AM 57.2°F14.0°C 51.4°F10.8°C 81% 2.2 mph NW3.5 kmh NW 9.4 mph15.1 kmh 29.71 in1006.1 mb 0.00 in0.0 mm 0.00 in0.0 mm 0.00 in0.0 mm
03:40 AM 56.8°F13.8°C 51.0°F10.6°C 81% 1.8 mph WNW2.9 kmh WNW 5.4 mph8.7 kmh 29.72 in1006.4 mb 0.00 in0.0 mm 0.00 in0.0 mm 0.00 in0.0 mm
03:35 AM 56.8°F13.8°C 51.4°F10.8°C 82% 2.2 mph NW3.5 kmh NW 5.4 mph8.7 kmh 29.72 in1006.4 mb 0.00 in0.0 mm 0.00 in0.0 mm 0.00 in0.0 mm
03:30 AM 56.8°F13.8°C 51.4°F10.8°C 82% 2.2 mph NNW3.5 kmh NNW 4.9 mph7.9 kmh 29.71 in1006.1 mb 0.00 in0.0 mm 0.00 in0.0 mm 0.00 in0.0 mm
03:25 AM 56.7°F13.7°C 51.3°F10.7°C 82% 1.8 mph N2.9 kmh N 4.9 mph7.9 kmh 29.71 in1006.1 mb 0.00 in0.0 mm 0.00 in0.0 mm 0.00 in0.0 mm
03:20 AM 56.8°F13.8°C 51.4°F10.8°C 82% 1.3 mph N2.1 kmh N 4.5 mph7.2 kmh 29.71 in1006.1 mb 0.00 in0.0 mm 0.00 in0.0 mm 0.00 in0.0 mm
03:15 AM 57.0°F13.9°C 51.2°F10.7°C 81% 1.8 mph N2.9 kmh N 5.4 mph8.7 kmh 29.71 in1006.1 mb 0.00 in0.0 mm 0.00 in0.0 mm 0.00 in0.0 mm
03:10 AM 57.2°F14.0°C 51.1°F10.6°C 80% 2.2 mph NNE3.5 kmh NNE 5.4 mph8.7 kmh 29.71 in1006.1 mb 0.00 in0.0 mm 0.00 in0.0 mm 0.00 in0.0 mm
03:05 AM 57.4°F14.1°C 50.9°F10.5°C 79% 1.8 mph NNE2.9 kmh NNE 4.0 mph6.4 kmh 29.71 in1006.1 mb 0.00 in0.0 mm 0.00 in0.0 mm 0.00 in0.0 mm
03:00 AM 57.4°F14.1°C 50.9°F10.5°C 79% 1.3 mph N2.1 kmh N 4.0 mph6.4 kmh 29.71 in1006.1 mb 0.00 in0.0 mm 0.00 in0.0 mm 0.00 in0.0 mm
02:55 AM 57.4°F14.1°C 50.6°F10.3°C 78% 1.8 mph NNW2.9 kmh NNW 5.4 mph8.7 kmh 29.71 in1006.1 mb 0.00 in0.0 mm 0.00 in0.0 mm 0.00 in0.0 mm
02:50 AM 57.6°F14.2°C 50.8°F10.4°C 78% 2.2 mph N3.5 kmh N 5.4 mph8.7 kmh 29.71 in1006.1 mb 0.00 in0.0 mm 0.00 in0.0 mm 0.00 in0.0 mm
02:45 AM 57.4°F14.1°C 50.6°F10.3°C 78% 2.2 mph N3.5 kmh N 5.4 mph8.7 kmh 29.71 in1006.1 mb 0.00 in0.0 mm 0.00 in0.0 mm 0.00 in0.0 mm
02:40 AM 57.4°F14.1°C 50.6°F10.3°C 78% 2.2 mph N3.5 kmh N 7.2 mph11.6 kmh 29.71 in1006.1 mb 0.00 in0.0 mm 0.00 in0.0 mm 0.00 in0.0 mm
02:35 AM 57.4°F14.1°C 50.6°F10.3°C 78% 2.7 mph N4.3 kmh N 7.2 mph11.6 kmh 29.72 in1006.4 mb 0.00 in0.0 mm 0.00 in0.0 mm 0.00 in0.0 mm
02:30 AM 57.4°F14.1°C 50.6°F10.3°C 78% 2.7 mph N4.3 kmh N 7.2 mph11.6 kmh 29.72 in1006.4 mb 0.00 in0.0 mm 0.00 in0.0 mm 0.00 in0.0 mm
02:25 AM 57.2°F14.0°C 50.7°F10.4°C 79% 1.3 mph N2.1 kmh N 7.2 mph11.6 kmh 29.72 in1006.4 mb 0.00 in0.0 mm 0.00 in0.0 mm 0.00 in0.0 mm
02:20 AM 56.7°F13.7°C 50.9°F10.5°C 81% 0.9 mph N1.4 kmh N 1.8 mph2.9 kmh 29.72 in1006.4 mb 0.00 in0.0 mm 0.00 in0.0 mm 0.00 in0.0 mm
02:15 AM 56.7°F13.7°C 50.9°F10.5°C 81% 1.3 mph N2.1 kmh N 2.7 mph4.3 kmh 29.73 in1006.8 mb 0.00 in0.0 mm 0.00 in0.0 mm 0.00 in0.0 mm
02:10 AM 56.7°F13.7°C 50.9°F10.5°C 81% 1.3 mph N2.1 kmh N 2.7 mph4.3 kmh 29.73 in1006.8 mb 0.00 in0.0 mm 0.00 in0.0 mm 0.00 in0.0 mm
02:05 AM 56.7°F13.7°C 50.6°F10.3°C 80% 1.3 mph N2.1 kmh N 3.1 mph5.0 kmh 29.73 in1006.8 mb 0.00 in0.0 mm 0.00 in0.0 mm 0.00 in0.0 mm
02:00 AM 56.8°F13.8°C 50.7°F10.4°C 80% 1.8 mph N2.9 kmh N 4.5 mph7.2 kmh 29.73 in1006.8 mb 0.00 in0.0 mm 0.00 in0.0 mm 0.00 in0.0 mm
01:55 AM 56.7°F13.7°C 50.9°F10.5°C 81% 1.8 mph NNE2.9 kmh NNE 8.5 mph13.7 kmh 29.73 in1006.8 mb 0.00 in0.0 mm 0.00 in0.0 mm 0.00 in0.0 mm
01:50 AM 56.3°F13.5°C 50.9°F10.5°C 82% 1.3 mph NNE2.1 kmh NNE 8.5 mph13.7 kmh 29.73 in1006.8 mb 0.00 in0.0 mm 0.00 in0.0 mm 0.00 in0.0 mm
01:45 AM 56.3°F13.5°C 51.2°F10.7°C 83% 0.9 mph N1.4 kmh N 3.6 mph5.8 kmh 29.74 in1007.1 mb 0.00 in0.0 mm 0.00 in0.0 mm 0.00 in0.0 mm
01:40 AM 56.3°F13.5°C 51.5°F10.8°C 84% 0.4 mph N0.6 kmh N 2.2 mph3.5 kmh 29.74 in1007.1 mb 0.00 in0.0 mm 0.00 in0.0 mm 0.00 in0.0 mm
01:35 AM 56.3°F13.5°C 51.2°F10.7°C 83% Calm Calm 1.3 mph2.1 kmh 29.75 in1007.5 mb 0.00 in0.0 mm 0.00 in0.0 mm 0.00 in0.0 mm
01:30 AM 56.3°F13.5°C 51.2°F10.7°C 83% Calm Calm 0.9 mph1.4 kmh 29.75 in1007.5 mb 0.00 in0.0 mm 0.00 in0.0 mm 0.00 in0.0 mm
01:25 AM 56.5°F13.6°C 51.4°F10.8°C 83% 0.4 mph N0.6 kmh N 1.3 mph2.1 kmh 29.75 in1007.5 mb 0.00 in0.0 mm 0.00 in0.0 mm 0.00 in0.0 mm
01:20 AM 56.5°F13.6°C 51.1°F10.6°C 82% 0.9 mph N1.4 kmh N 1.8 mph2.9 kmh 29.76 in1007.8 mb 0.00 in0.0 mm 0.00 in0.0 mm 0.00 in0.0 mm
01:15 AM 56.3°F13.5°C 51.2°F10.7°C 83% 0.9 mph NNW1.4 kmh NNW 2.2 mph3.5 kmh 29.76 in1007.8 mb 0.00 in0.0 mm 0.00 in0.0 mm 0.00 in0.0 mm
01:10 AM 56.3°F13.5°C 51.2°F10.7°C 83% 1.3 mph NNW2.1 kmh NNW 6.3 mph10.1 kmh 29.76 in1007.8 mb 0.00 in0.0 mm 0.00 in0.0 mm 0.00 in0.0 mm
01:05 AM 56.3°F13.5°C 51.2°F10.7°C 83% 0.4 mph NNW0.6 kmh NNW 6.3 mph10.1 kmh 29.77 in1008.1 mb 0.00 in0.0 mm 0.00 in0.0 mm 0.00 in0.0 mm
01:00 AM 56.1°F13.4°C 51.3°F10.7°C 84% Calm Calm 0.9 mph1.4 kmh 29.77 in1008.1 mb 0.00 in0.0 mm 0.00 in0.0 mm 0.00 in0.0 mm
12:55 AM 56.3°F13.5°C 51.5°F10.8°C 84% 0.4 mph N0.6 kmh N 0.9 mph1.4 kmh 29.77 in1008.1 mb 0.00 in0.0 mm 0.00 in0.0 mm 0.00 in0.0 mm
12:50 AM 56.3°F13.5°C 51.2°F10.7°C 83% 0.9 mph NNE1.4 kmh NNE 2.2 mph3.5 kmh 29.77 in1008.1 mb 0.00 in0.0 mm 0.00 in0.0 mm 0.00 in0.0 mm
12:45 AM 56.7°F13.7°C 51.6°F10.9°C 83% 0.9 mph NNE1.4 kmh NNE 2.2 mph3.5 kmh 29.78 in1008.5 mb 0.00 in0.0 mm 0.00 in0.0 mm 0.00 in0.0 mm
12:40 AM 56.8°F13.8°C 52.0°F11.1°C 84% 0.9 mph NNE1.4 kmh NNE 2.2 mph3.5 kmh 29.78 in1008.5 mb 0.00 in0.0 mm 0.00 in0.0 mm 0.00 in0.0 mm
12:35 AM 57.0°F13.9°C 51.9°F11.1°C 83% 1.3 mph NE2.1 kmh NE 6.3 mph10.1 kmh 29.78 in1008.5 mb 0.00 in0.0 mm 0.00 in0.0 mm 0.00 in0.0 mm
12:30 AM 57.2°F14.0°C 52.1°F11.2°C 83% 0.9 mph NE1.4 kmh NE 6.3 mph10.1 kmh 29.79 in1008.8 mb 0.00 in0.0 mm 0.00 in0.0 mm 0.00 in0.0 mm
12:25 AM 57.2°F14.0°C 51.8°F11.0°C 82% 0.9 mph NE1.4 kmh NE 1.8 mph2.9 kmh 29.80 in1009.1 mb 0.00 in0.0 mm 0.00 in0.0 mm 0.00 in0.0 mm
12:20 AM 57.2°F14.0°C 51.8°F11.0°C 82% 1.3 mph NE2.1 kmh NE 2.7 mph4.3 kmh 29.79 in1008.8 mb 0.00 in0.0 mm 0.00 in0.0 mm 0.00 in0.0 mm
12:15 AM 57.2°F14.0°C 51.8°F11.0°C 82% 1.8 mph NE2.9 kmh NE 3.1 mph5.0 kmh 29.80 in1009.1 mb 0.00 in0.0 mm 0.00 in0.0 mm 0.00 in0.0 mm
12:10 AM 57.4°F14.1°C 51.9°F11.1°C 82% 2.2 mph NNE3.5 kmh NNE 4.0 mph6.4 kmh 29.80 in1009.1 mb 0.00 in0.0 mm 0.00 in0.0 mm 0.00 in0.0 mm
12:05 AM 57.6°F14.2°C 51.8°F11.0°C 81% 2.2 mph NNE3.5 kmh NNE 5.4 mph8.7 kmh 29.80 in1009.1 mb 0.00 in0.0 mm 0.00 in0.0 mm 0.00 in0.0 mm
12:00 AM 57.6°F14.2°C 51.8°F11.0°C 81% 2.2 mph NNE3.5 kmh NNE 6.7 mph10.8 kmh 29.80 in1009.1 mb 0.00 in0.0 mm 0.00 in0.0 mm 0.00 in0.0 mm